createdAt,value
2022-10-28T00:01:21.401Z,99866.66
2022-10-28T00:06:26.736Z,99870.63
2022-10-28T00:11:31.971Z,99880.09
2022-10-28T00:16:38.055Z,99872.84
2022-10-28T00:21:43.006Z,99871.75
2022-10-28T00:26:46.300Z,99860.50
2022-10-28T00:31:50.947Z,99866.84
2022-10-28T00:36:53.866Z,99863.81
2022-10-28T00:41:58.331Z,99851.25
2022-10-28T00:47:02.680Z,99856.34
2022-10-28T00:52:10.241Z,99858.59
2022-10-28T00:57:16.215Z,99861.59
2022-10-28T01:02:21.249Z,99854.13
2022-10-28T01:07:24.615Z,99841.41
2022-10-28T01:12:36.404Z,99842.66
2022-10-28T01:17:55.312Z,99833.56
2022-10-28T01:23:05.566Z,99833.00
2022-10-28T01:28:44.084Z,99832.19
2022-10-28T01:33:53.854Z,99826.31
2022-10-28T01:39:02.590Z,99826.72
2022-10-28T01:44:10.388Z,99824.50
2022-10-28T01:49:21.230Z,99820.47
2022-10-28T01:54:28.433Z,99826.50
2022-10-28T01:59:33.110Z,99822.69
2022-10-28T02:04:37.383Z,99808.34
2022-10-28T02:10:04.003Z,99826.72
2022-10-28T02:15:23.387Z,99822.09
2022-10-28T02:20:37.040Z,99818.03
2022-10-28T02:25:44.527Z,99815.78
2022-10-28T02:30:52.687Z,99821.66
2022-10-28T02:36:01.751Z,99833.78
2022-10-28T02:41:10.048Z,99823.91
2022-10-28T02:46:15.703Z,99804.91
2022-10-28T02:51:25.414Z,99804.06
2022-10-28T02:56:31.446Z,99800.44
2022-10-28T03:01:34.549Z,99807.50
2022-10-28T03:06:39.024Z,99820.06
2022-10-28T03:11:41.930Z,99811.97
2022-10-28T03:16:44.935Z,99795.19
2022-10-28T03:21:49.200Z,99799.44
2022-10-28T03:26:52.104Z,99790.13
2022-10-28T03:31:55.022Z,99793.38
2022-10-28T03:36:59.313Z,99799.44
2022-10-28T03:42:02.256Z,99801.88
2022-10-28T03:47:05.254Z,99796.19
2022-10-28T03:52:09.527Z,99799.00
2022-10-28T03:57:12.431Z,99798.03
2022-10-28T04:02:15.748Z,99795.41
2022-10-28T04:07:20.336Z,99790.94
2022-10-28T04:12:23.197Z,99795.78
2022-10-28T04:17:26.141Z,99804.69
2022-10-28T04:22:30.413Z,99797.00
2022-10-28T04:27:33.302Z,99803.06
2022-10-28T04:32:36.216Z,99793.34
2022-10-28T04:37:41.321Z,99792.97
2022-10-28T04:42:44.213Z,99788.50
2022-10-28T04:47:47.135Z,99785.66
2022-10-28T04:52:51.667Z,99786.47
2022-10-28T04:57:56.071Z,99770.31
2022-10-28T05:03:02.673Z,99755.56
2022-10-28T05:08:07.263Z,99760.00
2022-10-28T05:13:10.199Z,99764.28
2022-10-28T05:18:13.077Z,99760.63
2022-10-28T05:23:17.307Z,99768.28
2022-10-28T05:28:20.296Z,99776.16
2022-10-28T05:33:23.247Z,99776.56
2022-10-28T05:38:27.805Z,99769.91
2022-10-28T05:43:30.699Z,99783.63
2022-10-28T05:48:34.703Z,99764.66
2022-10-28T05:53:38.976Z,99774.75
2022-10-28T05:58:41.861Z,99765.84
2022-10-28T06:03:44.835Z,99777.41
2022-10-28T06:08:49.365Z,99773.94
2022-10-28T06:13:50.787Z,99778.78
2022-10-28T06:18:53.752Z,99780.63
2022-10-28T06:23:57.992Z,99779.00
2022-10-28T06:29:00.933Z,99774.38
2022-10-28T06:34:04.291Z,99780.84
2022-10-28T06:39:08.614Z,99790.53
2022-10-28T06:44:11.592Z,99795.00
2022-10-28T06:49:16.160Z,99799.63
2022-10-28T06:54:20.435Z,99792.16
2022-10-28T06:59:23.355Z,99805.28
2022-10-28T07:04:26.286Z,99794.47
2022-10-28T07:09:30.768Z,99811.00
2022-10-28T07:14:34.795Z,99811.16
2022-10-28T07:19:37.730Z,99811.56
2022-10-28T07:24:42.154Z,99809.97
2022-10-28T07:29:45.057Z,99815.56
2022-10-28T07:34:47.936Z,99812.41
2022-10-28T07:39:52.257Z,99809.97
2022-10-28T07:44:55.151Z,99817.22
2022-10-28T07:49:58.150Z,99828.31
2022-10-28T07:55:02.448Z,99831.38
2022-10-28T08:00:08.259Z,99824.66
2022-10-28T08:05:14.046Z,99819.88
2022-10-28T08:10:18.363Z,99824.91
2022-10-28T08:15:23.614Z,99821.13
2022-10-28T08:20:26.593Z,99821.13
2022-10-28T08:25:30.825Z,99820.09
2022-10-28T08:30:50.183Z,99820.91
2022-10-28T08:35:56.675Z,99805.59
2022-10-28T08:41:11.194Z,99810.66
2022-10-28T08:46:25.017Z,99817.31
2022-10-28T08:51:37.965Z,99816.53
2022-10-28T08:56:46.115Z,99814.47
2022-10-28T09:06:58.150Z,99816.75
2022-10-28T09:12:13.615Z,99809.25
2022-10-28T09:17:20.257Z,99806.59
2022-10-28T09:22:26.147Z,99795.13
2022-10-28T09:27:44.729Z,99803.72
2022-10-28T09:32:58.375Z,99800.81
2022-10-28T09:38:13.120Z,99797.69
2022-10-28T09:43:24.303Z,99800.53
2022-10-28T09:48:30.470Z,99791.38
2022-10-28T09:53:42.729Z,99777.47
2022-10-28T09:58:48.497Z,99775.28
2022-10-28T10:03:53.306Z,99765.28
2022-10-28T10:08:57.175Z,99760.59
2022-10-28T10:14:07.827Z,99763.81
2022-10-28T10:19:12.173Z,99751.22
2022-10-28T10:24:26.224Z,99746.00
2022-10-28T10:29:32.243Z,99741.25
2022-10-28T10:34:36.233Z,99737.94
2022-10-28T10:39:39.911Z,99728.06
2022-10-28T10:44:44.854Z,99725.16
2022-10-28T10:49:49.802Z,99725.25
2022-10-28T10:55:02.521Z,99696.69
2022-10-28T11:00:08.462Z,99688.19
2022-10-28T11:05:12.095Z,99696.22
2022-10-28T11:10:23.260Z,99688.41
2022-10-28T11:15:29.802Z,99679.78
2022-10-28T11:20:47.232Z,99667.91
2022-10-28T11:25:54.286Z,99661.22
2022-10-28T11:36:22.860Z,99642.91
2022-10-28T11:41:38.539Z,99643.66
2022-10-28T11:46:55.977Z,99638.34
2022-10-28T11:52:08.820Z,99633.00
2022-10-28T11:57:16.677Z,99622.78
2022-10-28T12:02:39.777Z,99611.03
2022-10-28T12:07:55.251Z,99611.28
2022-10-28T12:13:05.168Z,99619.84
2022-10-28T12:18:19.565Z,99618.69
2022-10-28T12:23:24.610Z,99607.53
2022-10-28T12:28:31.427Z,99605.63
2022-10-28T12:33:40.552Z,99603.19
2022-10-28T12:38:49.335Z,99599.03
2022-10-28T12:43:57.193Z,99600.63
2022-10-28T12:49:11.338Z,99601.19
2022-10-28T12:54:22.775Z,99591.84
2022-10-28T12:59:31.781Z,99595.63
2022-10-28T13:04:38.426Z,99590.84
2022-10-28T13:10:07.507Z,99594.09
2022-10-28T13:15:33.525Z,99594.13
2022-10-28T13:20:48.665Z,99591.72
2022-10-28T13:26:14.752Z,99587.16
2022-10-28T13:31:18.599Z,99589.28
2022-10-28T13:36:27.955Z,99588.47
2022-10-28T13:41:41.029Z,99585.00
2022-10-28T13:47:06.693Z,99585.25
2022-10-28T13:52:21.876Z,99595.16
2022-10-28T13:57:29.678Z,99593.59
2022-10-28T14:02:38.631Z,99599.69
2022-10-28T14:07:54.552Z,99606.06
2022-10-28T14:13:00.966Z,99598.31
2022-10-28T14:18:22.717Z,99594.78
2022-10-28T14:24:07.912Z,99602.47
2022-10-28T14:29:24.953Z,99602.09
2022-10-28T14:34:41.156Z,99604.63
2022-10-28T14:40:01.964Z,99598.47
2022-10-28T14:45:21.612Z,99602.09
2022-10-28T14:50:27.424Z,99595.56
2022-10-28T14:55:34.176Z,99591.63
2022-10-28T15:00:41.705Z,99598.44
2022-10-28T15:05:44.677Z,99590.59
2022-10-28T15:10:50.764Z,99594.25
2022-10-28T15:15:57.353Z,99598.16
2022-10-28T15:21:10.141Z,99589.59
2022-10-28T15:26:16.576Z,99598.47
2022-10-28T15:31:19.523Z,99591.28
2022-10-28T15:36:24.556Z,99592.47
2022-10-28T15:41:52.453Z,99593.09
2022-10-28T15:46:57.020Z,99587.59
2022-10-28T15:52:22.806Z,99587.50
2022-10-28T15:57:29.456Z,99587.69
2022-10-28T16:02:42.100Z,99581.91
2022-10-28T16:07:46.051Z,99587.97
2022-10-28T16:12:50.594Z,99579.09
2022-10-28T16:17:54.000Z,99581.88
2022-10-28T16:22:57.378Z,99592.25
2022-10-28T16:28:01.686Z,99578.34
2022-10-28T16:33:05.976Z,99587.66
2022-10-28T16:38:13.668Z,99592.13
2022-10-28T16:43:19.766Z,99584.72
2022-10-28T16:48:25.104Z,99591.94
2022-10-28T16:53:28.267Z,99589.84
2022-10-28T16:58:35.170Z,99592.41
2022-10-28T17:03:38.141Z,99597.59
2022-10-28T17:14:05.313Z,99606.78
2022-10-28T17:19:08.221Z,99597.00
2022-10-28T17:24:11.408Z,99600.16
2022-10-28T17:29:15.906Z,99606.16
2022-10-28T17:34:18.898Z,99605.81
2022-10-28T17:39:25.867Z,99611.97
2022-10-28T17:44:30.858Z,99611.47
2022-10-28T17:49:36.391Z,99620.91
2022-10-28T17:54:39.471Z,99614.28
2022-10-28T17:59:43.735Z,99609.91
2022-10-28T18:04:46.693Z,99616.34
2022-10-28T18:09:49.732Z,99605.31
2022-10-28T18:14:54.041Z,99602.56
2022-10-28T18:19:57.829Z,99596.00
2022-10-28T18:25:00.905Z,99612.06
2022-10-28T18:30:06.129Z,99602.50
2022-10-28T18:35:09.749Z,99599.53
2022-10-28T18:40:13.402Z,99598.72
2022-10-28T18:45:18.023Z,99599.66
2022-10-28T18:50:20.912Z,99596.84
2022-10-28T18:55:25.003Z,99594.44
2022-10-28T19:00:29.337Z,99594.31
2022-10-28T19:05:33.414Z,99587.66
2022-10-28T19:10:36.353Z,99595.44
2022-10-28T19:15:47.225Z,99590.59
2022-10-28T19:20:50.767Z,99590.69
2022-10-28T19:25:57.537Z,99594.50
2022-10-28T19:31:02.954Z,99594.16
2022-10-28T19:36:08.000Z,99583.97
2022-10-28T19:41:12.838Z,99589.03
2022-10-28T19:46:19.810Z,99596.56
2022-10-28T19:51:24.510Z,99601.41
2022-10-28T19:56:28.526Z,99613.03
2022-10-28T20:01:35.890Z,99606.94
2022-10-28T20:06:40.633Z,99606.28
2022-10-28T20:11:44.614Z,99613.59
2022-10-28T20:16:49.285Z,99613.91
2022-10-28T20:21:52.375Z,99619.47
2022-10-28T20:26:55.403Z,99628.88
2022-10-28T20:31:59.679Z,99632.38
2022-10-28T20:37:02.617Z,99626.00
2022-10-28T20:42:05.583Z,99631.06
2022-10-28T20:47:09.834Z,99634.25
2022-10-28T20:52:16.587Z,99629.25
2022-10-28T20:57:19.574Z,99636.09
2022-10-28T21:02:24.007Z,99641.25
2022-10-28T21:07:26.993Z,99648.88
2022-10-28T21:12:29.944Z,99652.94
2022-10-28T21:17:34.179Z,99649.75
2022-10-28T21:22:37.173Z,99646.66
2022-10-28T21:27:40.080Z,99654.81
2022-10-28T21:32:44.411Z,99647.28
2022-10-28T21:37:47.451Z,99656.97
2022-10-28T21:42:50.681Z,99655.78
2022-10-28T21:47:56.762Z,99649.88
2022-10-28T21:53:04.039Z,99657.94
2022-10-28T21:58:07.326Z,99647.25
2022-10-28T22:03:12.763Z,99654.13
2022-10-28T22:08:16.937Z,99653.38
2022-10-28T22:13:19.899Z,99662.69
2022-10-28T22:18:24.217Z,99668.84
2022-10-28T22:23:27.367Z,99653.44
2022-10-28T22:28:30.298Z,99657.53
2022-10-28T22:33:34.725Z,99669.47
2022-10-28T22:38:38.031Z,99666.56
2022-10-28T22:43:41.556Z,99667.94
2022-10-28T22:48:46.293Z,99674.41
2022-10-28T22:53:49.656Z,99673.25
2022-10-28T22:58:55.102Z,99676.19
2022-10-28T23:04:00.984Z,99684.34
2022-10-28T23:09:04.296Z,99673.81
2022-10-28T23:14:07.275Z,99663.28
2022-10-28T23:19:11.524Z,99682.69
2022-10-28T23:24:14.443Z,99683.50
2022-10-28T23:29:17.339Z,99685.56
2022-10-28T23:34:21.578Z,99691.47
2022-10-28T23:39:24.738Z,99694.38
2022-10-28T23:44:27.621Z,99695.13
2022-10-28T23:49:31.937Z,99690.84
2022-10-28T23:54:35.129Z,99677.88
2022-10-28T23:59:38.013Z,99680.88
